Portada
METAR-TAF:

METAR-TAF

Aeroports :

Seül Seongnam, Corea del Sud

latitud: 37-26N, longitud: 127-07E, altitud: 20 m

Observació

L'informe es va fer fa 54 minuts, a les 19:00 UTC
Vent 2 kt del Sud-Oest
Temperatura 2°C
Humitat 69%
Pressió 1017 hPa
Visibilitat 10 km o més
Núvols disperses a una alçada de 20000 ft

METAR: RKSM 181900Z 22002KT 9999 SCT200 02/M03 A3002

Hora: 04:54 (19:54 UTC)

Pronòstic

L'informe es va fer fa 2 hores i 54 minuts, a les 17:00 UTC
Pronòstic vàlid del 18 a les 18 UTC al 19 a les 24 UTC
Vent 6 kt del Oest/Sud-Oest
Visibilitat 10 km o més
Núvols disperses a una alçada de 3000 ft
Núvols disperses a una alçada de 20000 ft

TAF: RKSM 181700Z 1818/1924 24006KT 9999 SCT030 SCT200 TN00/1821Z TX18/1906Z

Observacions i pronòstics meteorològics de més de 4000 aeroports (METAR i TAF).

Les estacions disponibles són els punts grocs i vermells al mapa.

Posi el ratolí al punt desitjat per veure el nom de l'estació.

Feu clic per veure les observacions i els pronòstics meteorològics.

Per canviar el mapa: feu clic els botons verds amb una creu de color negre per apropar; al botó verd amb un guió per allunyar la imatge; o en les fletxes verdes per a mapes adjacents.


METAR-TAF: